Time;durP1;ratioP1;P1;durP2;ratioP2;P2;SDS_P1;SDS_P2;PMS_P1;PMS_P2;Temp;Humidity;BMP_temperature;BMP_pressure;BME280_temperature;BME280_humidity;BME280_pressure;Samples;Min_cycle;Max_cycle;Signal;HPM_P1;HPM_P2
2023/06/27 07:28:10;;;;;;;7.25;1.38;;;26.50;97.50;;;;;;3244031;23;20241;-70
2023/06/27 07:30:36;;;;;;;3.33;0.88;;;26.90;97.60;;;;;;4937493;29;20256;-71
2023/06/27 07:33:03;;;;;;;5.43;1.30;;;26.80;97.30;;;;;;4947772;28;20214;-72
2023/06/27 07:35:30;;;;;;;5.20;1.35;;;26.70;97.50;;;;;;4954476;28;20573;-72
2023/06/27 07:37:57;;;;;;;5.75;1.52;;;26.70;97.00;;;;;;4945938;29;20663;-72
2023/06/27 07:40:23;;;;;;;4.32;1.50;;;26.80;97.60;;;;;;4955794;29;20204;-72
2023/06/27 07:42:50;;;;;;;6.15;1.33;;;27.00;97.30;;;;;;4956802;28;20208;-72
2023/06/27 07:45:18;;;;;;;7.38;1.52;;;27.50;97.00;;;;;;4956116;28;20226;-71
2023/06/27 07:47:45;;;;;;;4.95;1.50;;;27.60;96.80;;;;;;4956541;28;20298;-72
2023/06/27 07:50:12;;;;;;;5.20;1.10;;;27.20;96.00;;;;;;4959103;28;20576;-72
2023/06/27 07:52:39;;;;;;;5.88;1.10;;;26.90;96.90;;;;;;4958028;28;20675;-71
2023/06/27 07:55:07;;;;;;;7.10;1.60;;;27.20;96.50;;;;;;4959243;28;20224;-72
2023/06/27 07:57:34;;;;;;;3.53;1.38;;;27.40;96.30;;;;;;4957243;28;20701;-72
2023/06/27 08:00:01;;;;;;;5.07;1.45;;;27.80;96.10;;;;;;4956228;28;20299;-71
2023/06/27 08:02:29;;;;;;;4.07;1.45;;;27.80;95.40;;;;;;4956543;28;20295;-72
2023/06/27 08:04:56;;;;;;;4.55;1.20;;;27.40;95.10;;;;;;4956371;28;20315;-71
2023/06/27 08:07:23;;;;;;;4.25;1.33;;;27.10;95.30;;;;;;4956226;28;20294;-72
2023/06/27 08:09:49;;;;;;;5.32;1.13;;;27.10;96.10;;;;;;4955868;28;20326;-72
2023/06/27 08:12:16;;;;;;;5.22;1.30;;;26.80;95.80;;;;;;4956338;28;20277;-71
2023/06/27 08:14:45;;;;;;;3.67;1.55;;;27.00;95.60;;;;;;4956246;28;20230;-72
2023/06/27 08:17:11;;;;;;;3.28;1.13;;;27.20;95.60;;;;;;4956050;28;20212;-71
2023/06/27 08:19:40;;;;;;;4.53;1.45;;;27.80;95.50;;;;;;4955901;28;20211;-73
2023/06/27 08:22:06;;;;;;;4.65;1.00;;;27.80;95.60;;;;;;4956099;28;20212;-73
2023/06/27 08:24:33;;;;;;;3.03;1.08;;;28.10;94.40;;;;;;4955638;28;20246;-72
2023/06/27 08:27:00;;;;;;;4.80;0.90;;;27.90;94.50;;;;;;4955778;28;20208;-74
2023/06/27 08:29:27;;;;;;;3.58;1.10;;;27.90;94.20;;;;;;4955518;28;20235;-72
2023/06/27 08:31:58;;;;;;;2.58;1.08;;;27.60;94.40;;;;;;4955419;28;20302;-71
2023/06/27 08:34:25;;;;;;;6.15;1.83;;;28.20;94.20;;;;;;4955129;28;20204;-71
2023/06/27 08:36:54;;;;;;;4.13;1.25;;;28.50;93.20;;;;;;4955633;28;20212;-71
2023/06/27 08:39:20;;;;;;;4.38;1.00;;;28.80;93.30;;;;;;4955396;28;20291;-72
2023/06/27 08:41:47;;;;;;;4.15;1.50;;;29.10;92.90;;;;;;4955254;28;20749;-71
2023/06/27 08:44:15;;;;;;;2.53;1.00;;;29.20;92.70;;;;;;4955047;28;20567;-70
2023/06/27 08:46:43;;;;;;;2.40;0.80;;;29.30;92.70;;;;;;4954711;28;20227;-69
2023/06/27 08:49:14;;;;;;;2.40;1.02;;;29.70;92.90;;;;;;4955254;28;20782;-70
2023/06/27 08:51:44;;;;;;;4.70;1.33;;;29.70;92.20;;;;;;4954943;28;20200;-70
2023/06/27 08:54:17;;;;;;;5.32;1.23;;;30.10;91.40;;;;;;4954668;28;20226;-71
2023/06/27 08:56:45;;;;;;;5.18;1.25;;;29.60;92.10;;;;;;4954790;28;20208;-71
2023/06/27 08:59:16;;;;;;;3.20;1.25;;;28.80;92.60;;;;;;4954612;28;20468;-70
2023/06/27 09:01:43;;;;;;;3.72;1.50;;;28.20;92.20;;;;;;4954879;28;20204;-71
2023/06/27 09:04:10;;;;;;;5.53;0.93;;;28.70;92.40;;;;;;4954613;28;20652;-70
2023/06/27 09:06:40;;;;;;;4.60;1.02;;;28.90;90.80;;;;;;4954737;28;20218;-69
2023/06/27 09:09:07;;;;;;;3.47;1.45;;;28.30;92.50;;;;;;4954758;28;20298;-70
2023/06/27 09:11:35;;;;;;;3.75;0.95;;;28.70;92.30;;;;;;4955113;28;20231;-70
2023/06/27 09:14:03;;;;;;;4.55;0.90;;;29.00;91.50;;;;;;4955056;28;20230;-70
2023/06/27 09:16:30;;;;;;;1.83;0.68;;;29.00;91.20;;;;;;4955055;28;20698;-70
2023/06/27 09:18:57;;;;;;;4.40;0.90;;;29.30;89.20;;;;;;4955030;28;20204;-70
2023/06/27 09:21:24;;;;;;;3.42;0.90;;;28.80;88.90;;;;;;4955209;28;20218;-70
2023/06/27 09:23:51;;;;;;;3.45;1.27;;;28.20;91.10;;;;;;4955117;28;20208;-69
2023/06/27 09:26:18;;;;;;;2.10;0.90;;;28.60;92.00;;;;;;4954963;28;20732;-70
2023/06/27 09:28:48;;;;;;;1.65;0.80;;;28.40;91.50;;;;;;4955018;28;20232;-69
2023/06/27 09:31:17;;;;;;;2.80;0.90;;;27.70;90.90;;;;;;4955172;28;20214;-70
2023/06/27 09:33:44;;;;;;;4.25;0.80;;;27.70;92.00;;;;;;4954934;28;20662;-70
2023/06/27 09:36:12;;;;;;;1.90;0.90;;;28.00;91.90;;;;;;4954825;28;20220;-70
2023/06/27 09:38:39;;;;;;;3.03;1.05;;;27.60;89.60;;;;;;4954897;28;20578;-70
2023/06/27 09:41:06;;;;;;;1.92;0.80;;;27.20;90.80;;;;;;4954785;28;20219;-71
2023/06/27 09:43:35;;;;;;;3.60;0.90;;;27.70;90.70;;;;;;4954963;28;20208;-70
2023/06/27 09:46:05;;;;;;;1.23;0.60;;;28.10;90.30;;;;;;4954700;28;20224;-72
2023/06/27 09:48:32;;;;;;;3.58;0.88;;;28.00;88.90;;;;;;4954627;28;20231;-71
2023/06/27 09:51:00;;;;;;;3.90;0.80;;;27.90;90.50;;;;;;4954779;28;20305;-71
2023/06/27 09:53:28;;;;;;;3.47;0.63;;;27.50;88.00;;;;;;4954735;28;20211;-70
2023/06/27 09:55:59;;;;;;;0.98;0.65;;;27.30;90.50;;;;;;4954659;28;20231;-70
2023/06/27 09:58:30;;;;;;;2.03;0.70;;;26.60;91.00;;;;;;4958357;28;20208;-70
2023/06/27 10:01:07;;;;;;;2.78;0.80;;;26.40;90.10;;;;;;4958376;28;20562;-70
2023/06/27 10:03:35;;;;;;;2.70;0.73;;;25.90;91.10;;;;;;4958302;28;20247;-71
2023/06/27 10:06:03;;;;;;;2.70;0.80;;;26.00;91.60;;;;;;4958492;28;20275;-70
2023/06/27 10:08:30;;;;;;;3.78;0.70;;;26.20;92.20;;;;;;4958687;28;20596;-70
2023/06/27 10:10:57;;;;;;;0.82;0.50;;;26.60;89.10;;;;;;4958697;28;20214;-70
2023/06/27 10:13:25;;;;;;;0.80;0.50;;;26.20;91.70;;;;;;4958830;28;20208;-70
2023/06/27 10:15:52;;;;;;;1.90;0.73;;;26.20;90.00;;;;;;4958271;28;20280;-70
2023/06/27 10:18:21;;;;;;;3.80;0.73;;;26.10;91.10;;;;;;4958264;28;20287;-71
2023/06/27 10:20:48;;;;;;;1.48;0.60;;;26.00;90.70;;;;;;4958651;28;20207;-70
2023/06/27 10:23:15;;;;;;;7.28;0.90;;;25.80;89.90;;;;;;4958223;28;20548;-71
2023/06/27 10:25:42;;;;;;;1.10;0.60;;;25.80;90.20;;;;;;4958383;28;20625;-71
2023/06/27 10:28:09;;;;;;;2.15;0.47;;;26.10;90.40;;;;;;4957984;28;20308;-71
2023/06/27 10:30:44;;;;;;;2.72;0.73;;;26.00;90.30;;;;;;4957896;28;20327;-71
2023/06/27 10:33:20;;;;;;;1.85;0.95;;;25.80;90.90;;;;;;4958098;28;20212;-71
2023/06/27 10:35:53;;;;;;;1.23;0.70;;;25.80;90.90;;;;;;4958220;28;20227;-71
2023/06/27 10:38:20;;;;;;;2.45;0.50;;;25.80;91.00;;;;;;4958134;28;20211;-70
2023/06/27 10:41:07;;;;;;;2.67;0.80;;;26.20;91.00;;;;;;4958308;28;20551;-70
2023/06/27 10:43:36;;;;;;;2.97;0.88;;;26.40;90.50;;;;;;4957603;28;20208;-71
2023/06/27 10:46:07;;;;;;;4.63;0.75;;;26.50;90.90;;;;;;4958003;28;20232;-70
2023/06/27 10:48:35;;;;;;;0.60;0.52;;;26.60;90.70;;;;;;4958010;28;20552;-70
2023/06/27 10:51:07;;;;;;;2.67;0.88;;;26.80;90.10;;;;;;4957963;28;20302;-70
2023/06/27 10:53:34;;;;;;;1.40;0.55;;;26.60;90.70;;;;;;4957907;28;20239;-70
2023/06/27 10:56:15;;;;;;;3.33;0.85;;;26.40;89.40;;;;;;4957594;28;20250;-70
2023/06/27 10:58:44;;;;;;;2.13;0.75;;;26.50;90.30;;;;;;4957763;28;20274;-71
2023/06/27 11:01:12;;;;;;;2.53;0.85;;;26.50;90.30;;;;;;4957612;28;20215;-70
2023/06/27 11:03:39;;;;;;;5.32;0.80;;;26.00;90.90;;;;;;4957581;28;20258;-70
2023/06/27 11:06:08;;;;;;;1.25;0.50;;;26.00;91.00;;;;;;4957814;28;20224;-70
2023/06/27 11:08:36;;;;;;;2.50;0.50;;;25.70;91.60;;;;;;4956484;28;20208;-70
2023/06/27 11:11:06;;;;;;;3.92;0.68;;;25.70;91.50;;;;;;4956616;28;20204;-70
2023/06/27 11:13:35;;;;;;;3.28;0.52;;;25.70;90.20;;;;;;4957011;28;20250;-70
2023/06/27 11:16:02;;;;;;;2.38;0.70;;;25.70;90.90;;;;;;4956786;28;20242;-70
2023/06/27 11:18:29;;;;;;;1.10;0.70;;;25.80;91.10;;;;;;4956998;28;20303;-71
2023/06/27 11:20:57;;;;;;;2.58;0.70;;;25.50;91.10;;;;;;4957027;28;20314;-71
2023/06/27 11:23:25;;;;;;;1.42;0.73;;;25.50;91.50;;;;;;4957045;28;20246;-71
2023/06/27 11:25:53;;;;;;;1.35;0.70;;;25.80;91.90;;;;;;4956799;28;20231;-71
2023/06/27 11:28:22;;;;;;;0.90;0.50;;;25.90;91.20;;;;;;4956795;28;20212;-71
2023/06/27 11:30:49;;;;;;;3.75;0.90;;;26.20;91.50;;;;;;4956587;28;20263;-71
2023/06/27 11:33:17;;;;;;;1.88;0.80;;;26.20;90.80;;;;;;4956670;28;20299;-71
2023/06/27 11:35:44;;;;;;;2.53;0.80;;;25.80;91.10;;;;;;4956834;28;20228;-71
2023/06/27 11:38:11;;;;;;;3.10;0.80;;;25.80;91.60;;;;;;4957002;28;20208;-70
2023/06/27 11:40:48;;;;;;;1.83;0.70;;;26.00;91.30;;;;;;4956665;28;20232;-70
2023/06/27 11:43:15;;;;;;;1.95;0.82;;;26.20;91.90;;;;;;4956542;28;20253;-70
2023/06/27 11:45:45;;;;;;;2.28;0.55;;;26.20;90.60;;;;;;4956343;28;20235;-71
2023/06/27 11:48:12;;;;;;;2.42;0.50;;;26.30;91.60;;;;;;4956472;28;20309;-71
2023/06/27 11:50:54;;;;;;;2.63;0.77;;;26.20;92.40;;;;;;4956613;28;20271;-71
2023/06/27 11:53:23;;;;;;;2.47;0.88;;;26.30;91.50;;;;;;4956289;28;20214;-71
2023/06/27 11:55:52;;;;;;;1.67;0.60;;;26.20;92.10;;;;;;4955715;28;20737;-71
2023/06/27 11:58:29;;;;;;;1.48;0.65;;;25.50;92.00;;;;;;4956096;28;20208;-71
2023/06/27 12:00:56;;;;;;;1.88;0.60;;;25.30;93.10;;;;;;4956271;28;20211;-71
2023/06/27 12:03:27;;;;;;;3.97;1.00;;;25.20;92.40;;;;;;4956144;28;20307;-71
2023/06/27 12:05:56;;;;;;;1.40;0.68;;;24.90;92.30;;;;;;4952043;28;20586;-70
2023/06/27 12:08:29;;;;;;;2.13;0.65;;;24.90;92.60;;;;;;4948613;29;20204;-72
2023/06/27 12:11:00;;;;;;;3.40;0.70;;;25.00;93.80;;;;;;4955833;28;20235;-71
2023/06/27 12:13:32;;;;;;;1.95;0.60;;;25.20;93.30;;;;;;4936869;29;20245;-71
2023/06/27 12:15:59;;;;;;;2.72;0.75;;;25.40;92.10;;;;;;4946021;29;20228;-70
2023/06/27 12:18:27;;;;;;;1.55;0.60;;;25.50;91.70;;;;;;4955961;28;20619;-71
2023/06/27 12:20:54;;;;;;;2.03;0.65;;;25.70;92.10;;;;;;4955553;28;20208;-72
2023/06/27 12:23:21;;;;;;;3.38;0.70;;;25.70;92.10;;;;;;4955168;28;20294;-71
2023/06/27 12:25:48;;;;;;;1.77;0.85;;;25.60;92.00;;;;;;4955417;28;20234;-69
2023/06/27 12:28:17;;;;;;;3.63;0.50;;;25.70;92.00;;;;;;4955438;28;20242;-71
2023/06/27 12:30:44;;;;;;;4.22;1.02;;;25.80;91.40;;;;;;4950897;28;20242;-71
2023/06/27 12:33:11;;;;;;;3.22;0.95;;;25.70;91.80;;;;;;4954222;28;20575;-72
2023/06/27 12:35:39;;;;;;;1.45;0.70;;;25.70;92.10;;;;;;4953639;28;20228;-73
2023/06/27 12:38:06;;;;;;;2.20;0.80;;;25.90;91.10;;;;;;4953969;28;20303;-71
2023/06/27 12:40:33;;;;;;;4.68;0.75;;;26.10;91.00;;;;;;4954596;28;20236;-70
2023/06/27 12:43:00;;;;;;;1.83;0.63;;;26.20;90.00;;;;;;4954252;28;20218;-71
2023/06/27 12:45:32;;;;;;;1.33;0.80;;;26.40;90.00;;;;;;4954022;28;20232;-71
2023/06/27 12:47:58;;;;;;;2.33;0.80;;;26.50;88.80;;;;;;4948889;28;20212;-71
2023/06/27 12:50:25;;;;;;;3.22;0.85;;;26.50;90.00;;;;;;4953775;28;20322;-69
2023/06/27 12:52:52;;;;;;;4.38;0.70;;;26.30;88.00;;;;;;4953536;28;20205;-71
2023/06/27 12:55:20;;;;;;;2.63;0.70;;;26.20;90.40;;;;;;4955042;28;20327;-69
2023/06/27 12:57:48;;;;;;;1.20;0.60;;;25.90;90.80;;;;;;4945831;28;20209;-70
2023/06/27 13:00:19;;;;;;;3.60;1.02;;;25.80;89.80;;;;;;4937007;29;20212;-68
2023/06/27 13:02:49;;;;;;;4.32;0.70;;;25.90;90.90;;;;;;4954703;28;20214;-69
2023/06/27 13:05:16;;;;;;;2.63;0.68;;;25.90;86.20;;;;;;4954022;28;20231;-71
2023/06/27 13:07:43;;;;;;;2.10;0.73;;;25.90;89.50;;;;;;4953638;28;20218;-70
2023/06/27 13:10:11;;;;;;;2.17;0.70;;;25.90;89.40;;;;;;4954033;28;20291;-72
2023/06/27 13:12:38;;;;;;;4.10;0.80;;;25.90;87.80;;;;;;4953490;28;20200;-72
2023/06/27 13:15:08;;;;;;;2.05;0.70;;;26.00;90.00;;;;;;4953549;28;20908;-71
2023/06/27 13:17:36;;;;;;;1.98;0.85;;;26.10;91.30;;;;;;4954051;28;20212;-72
2023/06/27 13:20:06;;;;;;;2.15;0.70;;;26.10;90.40;;;;;;4953765;28;20239;-72
2023/06/27 13:22:33;;;;;;;9.23;1.13;;;26.10;90.30;;;;;;4934734;29;20239;-71
2023/06/27 13:25:00;;;;;;;1.60;0.60;;;26.10;90.20;;;;;;4955274;23;20227;-75
2023/06/27 13:27:27;;;;;;;0.85;0.60;;;26.00;90.50;;;;;;4973639;28;20253;-76
2023/06/27 13:29:57;;;;;;;2.85;0.80;;;26.10;89.50;;;;;;4973409;28;20231;-75
2023/06/27 13:32:24;;;;;;;2.40;0.75;;;25.90;89.10;;;;;;4972631;28;20211;-75
2023/06/27 13:34:51;;;;;;;1.83;0.73;;;25.80;91.10;;;;;;4968473;28;20684;-75
2023/06/27 13:37:19;;;;;;;2.05;0.65;;;25.90;90.40;;;;;;4954227;28;20699;-74
2023/06/27 13:39:46;;;;;;;4.63;2.45;;;26.00;89.80;;;;;;4954422;28;20687;-75
2023/06/27 13:42:13;;;;;;;2.50;0.80;;;26.20;90.70;;;;;;4953298;28;20299;-75
2023/06/27 13:44:39;;;;;;;2.05;0.80;;;26.30;90.20;;;;;;4954069;28;20228;-76
2023/06/27 13:47:07;;;;;;;2.45;0.88;;;26.50;90.40;;;;;;4953841;28;20323;-73
2023/06/27 13:49:34;;;;;;;1.65;0.80;;;26.70;88.50;;;;;;4953936;28;20208;-78
2023/06/27 13:52:03;;;;;;;2.33;0.80;;;26.70;88.90;;;;;;4955138;28;20212;-77
2023/06/27 13:54:31;;;;;;;1.40;0.90;;;26.60;90.10;;;;;;4954489;28;20212;-78
2023/06/27 13:56:58;;;;;;;2.70;0.80;;;26.60;90.90;;;;;;4955106;28;20208;-77
2023/06/27 13:59:25;;;;;;;2.20;0.90;;;26.70;91.10;;;;;;4954603;28;20340;-77
2023/06/27 14:01:52;;;;;;;3.17;0.90;;;26.80;91.00;;;;;;4955263;28;20215;-77
2023/06/27 14:04:19;;;;;;;1.33;0.70;;;26.60;90.40;;;;;;4955051;28;20212;-77
2023/06/27 14:06:51;;;;;;;2.22;0.70;;;26.10;90.80;;;;;;4955124;28;20210;-77
2023/06/27 14:09:18;;;;;;;3.10;1.20;;;26.10;91.00;;;;;;4955054;28;20211;-77
2023/06/27 14:11:47;;;;;;;2.05;0.70;;;26.20;91.10;;;;;;4954699;28;20242;-77
2023/06/27 14:14:14;;;;;;;0.80;0.55;;;26.30;90.70;;;;;;4954063;28;20208;-76
2023/06/27 14:16:40;;;;;;;2.13;1.15;;;26.50;91.70;;;;;;4954499;28;20207;-78
2023/06/27 14:19:07;;;;;;;5.35;0.80;;;26.70;91.00;;;;;;4954567;28;20212;-77
2023/06/27 14:21:36;;;;;;;2.10;0.80;;;26.60;91.10;;;;;;4954372;28;20667;-77
2023/06/27 14:24:04;;;;;;;3.10;0.73;;;26.70;90.00;;;;;;4954527;28;20238;-77
2023/06/27 14:26:31;;;;;;;3.65;1.15;;;26.80;89.60;;;;;;4954621;28;20235;-77
2023/06/27 14:28:59;;;;;;;3.72;0.80;;;26.90;90.70;;;;;;4954473;28;20214;-77
2023/06/27 14:31:26;;;;;;;1.27;0.65;;;27.10;90.80;;;;;;4954122;28;20232;-78
2023/06/27 14:33:52;;;;;;;5.07;1.00;;;27.00;90.10;;;;;;4953999;28;20216;-77
2023/06/27 14:36:19;;;;;;;5.20;0.80;;;26.60;90.50;;;;;;4953852;28;20662;-78
2023/06/27 14:38:46;;;;;;;2.15;1.20;;;26.70;91.20;;;;;;4954234;28;20555;-78
2023/06/27 14:41:13;;;;;;;1.63;0.88;;;26.50;90.70;;;;;;4954945;28;20214;-77
2023/06/27 14:43:40;;;;;;;2.15;0.90;;;26.30;91.10;;;;;;4954962;28;20204;-77
2023/06/27 14:46:09;;;;;;;1.70;0.80;;;26.20;91.10;;;;;;4957770;28;20319;-77
2023/06/27 14:48:36;;;;;;;2.90;0.90;;;26.10;90.80;;;;;;4960280;28;20212;-78
2023/06/27 14:51:03;;;;;;;3.10;0.88;;;25.90;92.00;;;;;;4956022;28;20231;-77
2023/06/27 14:53:29;;;;;;;1.85;0.70;;;25.80;90.30;;;;;;4959819;28;20204;-76
2023/06/27 14:55:56;;;;;;;1.63;0.80;;;25.80;90.80;;;;;;4958440;28;20781;-77
2023/06/27 14:58:23;;;;;;;2.55;0.88;;;25.90;90.70;;;;;;4960037;28;20207;-77
2023/06/27 15:00:50;;;;;;;2.38;0.68;;;26.00;90.90;;;;;;4959578;28;20674;-77
2023/06/27 15:03:18;;;;;;;3.45;0.82;;;26.20;90.10;;;;;;4959620;28;20563;-79
2023/06/27 15:05:45;;;;;;;3.90;0.82;;;26.40;89.10;;;;;;4962131;28;20227;-78
2023/06/27 15:08:13;;;;;;;1.52;0.60;;;26.30;89.90;;;;;;4961695;28;20357;-78
2023/06/27 15:10:45;;;;;;;6.25;0.93;;;26.40;89.20;;;;;;4962303;28;20231;-76
2023/06/27 15:13:12;;;;;;;3.65;0.65;;;26.50;90.30;;;;;;4959698;28;20204;-78
2023/06/27 15:15:39;;;;;;;2.22;0.85;;;26.40;90.40;;;;;;4961061;28;20234;-77
2023/06/27 15:18:06;;;;;;;3.38;0.82;;;26.20;90.20;;;;;;4960475;28;20204;-78
2023/06/27 15:20:34;;;;;;;1.98;0.88;;;26.20;89.20;;;;;;4941556;29;20209;-76
2023/06/27 15:23:01;;;;;;;2.13;0.60;;;26.30;88.90;;;;;;4944480;29;20291;-77
2023/06/27 15:25:28;;;;;;;2.83;0.90;;;26.30;89.20;;;;;;4959293;28;20241;-76
2023/06/27 15:27:55;;;;;;;3.65;0.98;;;26.40;90.60;;;;;;4959072;28;20299;-77
2023/06/27 15:30:22;;;;;;;3.67;0.85;;;26.40;88.20;;;;;;4958736;28;20323;-75
2023/06/27 15:32:49;;;;;;;2.47;0.98;;;26.30;90.00;;;;;;4956981;28;20295;-75
2023/06/27 15:35:16;;;;;;;3.50;0.63;;;26.00;90.20;;;;;;4943023;29;20319;-75
2023/06/27 15:37:44;;;;;;;3.53;0.70;;;25.80;90.70;;;;;;4959221;28;20218;-78
2023/06/27 15:40:13;;;;;;;2.38;0.90;;;25.80;90.80;;;;;;4958765;28;20284;-78
2023/06/27 15:42:39;;;;;;;1.52;0.60;;;25.80;91.00;;;;;;4940014;29;20205;-76
2023/06/27 15:45:08;;;;;;;2.22;0.77;;;25.80;90.50;;;;;;4939098;29;20575;-75
2023/06/27 15:47:34;;;;;;;3.92;0.90;;;25.60;90.80;;;;;;4957981;28;20230;-78
2023/06/27 15:50:02;;;;;;;2.00;0.93;;;25.50;91.20;;;;;;4955505;28;20294;-77
2023/06/27 15:52:29;;;;;;;4.80;0.95;;;25.50;91.40;;;;;;4937674;29;20212;-78
2023/06/27 15:54:59;;;;;;;1.20;0.80;;;25.50;91.50;;;;;;4938004;29;20229;-77
2023/06/27 15:57:27;;;;;;;2.10;0.90;;;25.40;90.80;;;;;;4937679;29;20208;-78
2023/06/27 15:59:53;;;;;;;1.77;0.70;;;25.40;91.10;;;;;;4937241;29;20211;-78
2023/06/27 16:02:20;;;;;;;1.70;0.80;;;25.20;91.00;;;;;;4937191;29;20227;-77
2023/06/27 16:04:48;;;;;;;2.40;1.00;;;25.20;91.60;;;;;;4936830;29;20235;-78
2023/06/27 16:07:14;;;;;;;2.58;0.80;;;25.10;91.80;;;;;;4955680;28;20659;-78
2023/06/27 16:09:41;;;;;;;2.35;1.00;;;25.00;91.40;;;;;;4952570;28;20641;-78
2023/06/27 16:12:10;;;;;;;2.78;0.90;;;24.80;92.40;;;;;;4948012;28;20247;-78
2023/06/27 16:14:37;;;;;;;1.65;0.85;;;24.70;92.20;;;;;;4936499;29;20319;-76
2023/06/27 16:17:04;;;;;;;2.78;0.75;;;24.60;93.30;;;;;;4936887;29;20664;-76
2023/06/27 16:19:31;;;;;;;3.30;0.95;;;24.60;92.60;;;;;;4936870;29;20231;-77
2023/06/27 16:21:58;;;;;;;2.45;0.75;;;24.60;92.90;;;;;;4936538;29;20638;-76
2023/06/27 16:24:25;;;;;;;3.25;0.90;;;24.40;92.90;;;;;;4936299;29;20211;-76
2023/06/27 16:26:52;;;;;;;2.65;1.10;;;24.40;93.80;;;;;;4936577;29;20220;-76
2023/06/27 16:29:20;;;;;;;3.00;0.88;;;24.40;94.10;;;;;;4942459;29;20656;-74
2023/06/27 16:31:47;;;;;;;2.33;1.10;;;24.60;93.60;;;;;;4955351;28;20240;-76
2023/06/27 16:34:14;;;;;;;4.72;1.20;;;24.60;94.00;;;;;;4955427;28;20208;-74
2023/06/27 16:36:41;;;;;;;3.28;0.98;;;24.70;94.30;;;;;;4955604;28;20759;-76
2023/06/27 16:39:08;;;;;;;4.97;1.02;;;24.60;94.40;;;;;;4955351;28;20294;-76
2023/06/27 16:41:35;;;;;;;1.52;0.70;;;24.60;94.80;;;;;;4955230;28;20568;-75
2023/06/27 16:44:02;;;;;;;2.53;0.93;;;24.50;94.90;;;;;;4954974;28;20208;-75
2023/06/27 16:46:34;;;;;;;2.13;0.75;;;24.40;94.60;;;;;;4955250;28;20590;-78
2023/06/27 16:49:01;;;;;;;6.05;1.15;;;24.30;95.00;;;;;;4955405;28;20211;-76
2023/06/27 16:51:28;;;;;;;2.83;0.93;;;24.10;94.10;;;;;;4955309;28;20232;-73
2023/06/27 16:53:55;;;;;;;2.58;0.88;;;24.00;93.60;;;;;;4955016;28;20211;-76
2023/06/27 16:56:22;;;;;;;1.98;0.70;;;23.90;94.20;;;;;;4955283;28;20227;-76
2023/06/27 16:58:48;;;;;;;3.30;0.88;;;23.70;93.80;;;;;;4954972;28;20211;-78
2023/06/27 17:01:16;;;;;;;2.97;0.70;;;23.60;94.20;;;;;;4955378;28;20208;-75
2023/06/27 17:03:44;;;;;;;2.60;0.90;;;23.50;94.00;;;;;;4955170;28;20207;-74
2023/06/27 17:06:11;;;;;;;4.60;1.05;;;23.50;94.10;;;;;;4954572;28;20283;-76
2023/06/27 17:08:37;;;;;;;2.47;1.00;;;23.50;94.30;;;;;;4953873;28;20621;-76
2023/06/27 17:11:04;;;;;;;3.88;0.95;;;23.50;94.50;;;;;;4955087;28;20240;-76
2023/06/27 17:13:31;;;;;;;4.00;0.70;;;23.50;94.90;;;;;;4955106;28;20204;-77
2023/06/27 17:15:59;;;;;;;2.25;0.80;;;23.50;94.10;;;;;;4954994;28;20706;-78
2023/06/27 17:18:26;;;;;;;3.92;0.90;;;23.50;94.30;;;;;;4953098;28;20219;-76
2023/06/27 17:20:54;;;;;;;2.00;0.70;;;23.40;94.10;;;;;;4955211;28;20211;-77
2023/06/27 17:23:21;;;;;;;3.03;1.13;;;23.40;94.00;;;;;;4954799;28;20200;-80
2023/06/27 17:25:48;;;;;;;1.40;0.63;;;23.20;94.00;;;;;;4954856;28;20793;-78
2023/06/27 17:28:16;;;;;;;1.92;0.60;;;23.10;94.30;;;;;;4954996;28;20235;-80
2023/06/27 17:30:43;;;;;;;1.15;0.60;;;23.10;94.00;;;;;;4954783;28;20204;-79
2023/06/27 17:33:10;;;;;;;2.53;0.77;;;23.10;94.80;;;;;;4955071;28;20215;-79
2023/06/27 17:35:37;;;;;;;1.83;0.70;;;23.20;94.10;;;;;;4955052;28;20544;-79
2023/06/27 17:38:05;;;;;;;1.90;0.68;;;23.20;94.00;;;;;;4954641;28;20212;-80
2023/06/27 17:40:32;;;;;;;1.80;0.73;;;23.20;94.20;;;;;;4954975;28;20210;-79
2023/06/27 17:42:59;;;;;;;4.22;0.80;;;23.20;94.80;;;;;;4955095;28;20298;-78
2023/06/27 17:45:25;;;;;;;2.05;0.90;;;23.10;94.20;;;;;;4954587;28;20224;-78
2023/06/27 17:47:52;;;;;;;1.50;0.70;;;23.00;94.20;;;;;;4954779;28;20294;-78
2023/06/27 17:50:19;;;;;;;2.20;0.70;;;22.80;93.90;;;;;;4954810;28;20218;-79
2023/06/27 17:52:49;;;;;;;2.25;0.90;;;22.70;94.80;;;;;;4954521;28;20246;-78
2023/06/27 17:55:18;;;;;;;1.58;0.70;;;22.70;94.80;;;;;;4954445;28;20251;-79
2023/06/27 17:57:44;;;;;;;2.25;0.60;;;22.70;94.70;;;;;;4949108;28;20211;-80
2023/06/27 18:00:12;;;;;;;2.85;1.17;;;22.80;94.60;;;;;;4953877;28;20215;-79
2023/06/27 18:02:39;;;;;;;2.50;0.80;;;22.80;94.10;;;;;;4954286;28;20208;-80
2023/06/27 18:05:06;;;;;;;1.25;0.50;;;22.90;94.10;;;;;;4954323;28;20313;-77
2023/06/27 18:07:33;;;;;;;4.15;0.90;;;22.80;93.90;;;;;;4953553;28;20231;-79
2023/06/27 18:10:00;;;;;;;3.63;0.82;;;22.80;94.20;;;;;;4954214;28;20626;-78
2023/06/27 18:12:30;;;;;;;1.52;0.60;;;22.80;94.10;;;;;;4953987;28;20235;-78
2023/06/27 18:14:58;;;;;;;1.63;0.80;;;22.80;93.90;;;;;;4954092;28;20230;-79
2023/06/27 18:17:25;;;;;;;2.28;0.65;;;22.80;93.60;;;;;;4946114;28;20207;-78
2023/06/27 18:19:52;;;;;;;4.25;1.70;;;22.70;94.40;;;;;;4944432;29;20304;-79
2023/06/27 18:22:19;;;;;;;3.05;0.70;;;22.60;94.50;;;;;;4952707;29;20215;-79
2023/06/27 18:24:45;;;;;;;1.05;0.70;;;22.50;93.90;;;;;;4956910;28;20238;-77
2023/06/27 18:27:12;;;;;;;2.75;0.60;;;22.30;94.20;;;;;;4948140;28;20211;-78
2023/06/27 18:29:41;;;;;;;5.22;0.65;;;22.20;94.30;;;;;;4951991;28;20212;-78
2023/06/27 18:32:09;;;;;;;2.22;0.70;;;22.30;94.10;;;;;;4948122;29;20229;-79
2023/06/27 18:34:36;;;;;;;1.33;0.60;;;22.40;94.10;;;;;;4946622;29;20667;-78
2023/06/27 18:37:03;;;;;;;3.00;0.65;;;22.40;94.10;;;;;;4952843;28;20204;-77
2023/06/27 18:39:30;;;;;;;2.83;0.90;;;22.20;95.00;;;;;;4963460;28;20290;-78
2023/06/27 18:41:57;;;;;;;2.70;0.60;;;22.10;94.50;;;;;;4955128;28;20291;-78
2023/06/27 18:44:24;;;;;;;3.20;0.70;;;22.10;94.30;;;;;;4953631;28;20676;-79
2023/06/27 18:46:52;;;;;;;3.00;0.77;;;22.20;94.30;;;;;;4951947;28;20216;-78
2023/06/27 18:49:19;;;;;;;4.07;0.98;;;22.20;94.20;;;;;;4951735;28;20768;-78
2023/06/27 18:51:46;;;;;;;2.63;0.75;;;22.20;93.90;;;;;;4953176;29;20258;-79
2023/06/27 18:54:12;;;;;;;2.03;0.90;;;22.00;94.10;;;;;;4953586;28;20208;-80
2023/06/27 18:56:39;;;;;;;1.17;0.68;;;22.00;94.20;;;;;;4954351;28;20208;-79
2023/06/27 18:59:06;;;;;;;1.85;0.60;;;22.10;94.00;;;;;;4952685;28;20208;-79
2023/06/27 19:01:33;;;;;;;2.45;0.57;;;22.00;94.70;;;;;;4954848;28;20212;-80
2023/06/27 19:04:01;;;;;;;2.05;0.80;;;21.80;95.10;;;;;;4951938;28;20254;-79
2023/06/27 19:06:29;;;;;;;2.97;0.52;;;21.70;94.80;;;;;;4953506;28;20228;-80
2023/06/27 19:08:56;;;;;;;1.10;0.60;;;21.70;94.20;;;;;;4950443;28;20212;-76
2023/06/27 19:11:24;;;;;;;2.22;0.75;;;21.80;94.20;;;;;;4956351;28;20394;-75
2023/06/27 19:13:50;;;;;;;2.75;0.68;;;21.80;94.30;;;;;;4951382;28;20577;-75
2023/06/27 19:16:18;;;;;;;1.60;0.90;;;21.70;94.40;;;;;;4956433;28;20559;-75
2023/06/27 19:18:44;;;;;;;1.27;0.60;;;21.50;94.80;;;;;;4949951;28;20211;-77
2023/06/27 19:21:16;;;;;;;3.30;0.75;;;21.50;95.20;;;;;;4955537;28;20214;-76
2023/06/27 19:23:43;;;;;;;4.65;0.60;;;21.50;94.90;;;;;;4950008;28;20212;-75
2023/06/27 19:26:10;;;;;;;1.08;0.50;;;21.50;94.80;;;;;;4954295;28;20231;-75
2023/06/27 19:28:38;;;;;;;2.25;1.20;;;21.40;94.90;;;;;;4948705;28;20243;-75
2023/06/27 19:31:05;;;;;;;3.75;0.77;;;21.40;95.20;;;;;;4953630;28;20634;-75
2023/06/27 19:33:32;;;;;;;3.25;0.77;;;21.40;94.60;;;;;;4956539;28;20242;-75
2023/06/27 19:36:01;;;;;;;4.00;0.90;;;21.40;94.60;;;;;;4952908;28;20229;-76
2023/06/27 19:38:29;;;;;;;2.08;1.05;;;21.50;94.40;;;;;;4954675;28;20271;-75
2023/06/27 19:40:56;;;;;;;2.97;0.85;;;21.50;94.60;;;;;;4950879;28;20212;-75
2023/06/27 19:43:23;;;;;;;2.83;0.63;;;21.40;94.80;;;;;;4953308;28;20216;-75
2023/06/27 19:45:50;;;;;;;2.67;1.00;;;21.40;94.80;;;;;;4949843;28;20235;-75
2023/06/27 19:48:17;;;;;;;2.97;0.60;;;21.30;94.80;;;;;;4956428;28;20208;-75
2023/06/27 19:50:44;;;;;;;1.13;0.60;;;21.40;94.30;;;;;;4949393;28;20208;-75
2023/06/27 19:53:11;;;;;;;1.48;0.60;;;21.40;94.50;;;;;;4955971;28;20599;-75
2023/06/27 19:55:39;;;;;;;3.13;0.65;;;21.40;94.40;;;;;;4947285;28;20235;-75
2023/06/27 19:58:06;;;;;;;2.58;0.68;;;21.40;94.50;;;;;;4954791;29;20212;-75
2023/06/27 20:00:33;;;;;;;1.48;0.68;;;21.40;94.70;;;;;;4950069;28;20235;-76
2023/06/27 20:03:00;;;;;;;3.80;0.70;;;21.40;94.60;;;;;;4955852;28;20251;-76
2023/06/27 20:05:27;;;;;;;3.00;0.50;;;21.40;94.40;;;;;;4945952;28;20595;-78
2023/06/27 20:07:54;;;;;;;1.75;0.70;;;21.40;94.80;;;;;;4954094;28;20208;-76
2023/06/27 20:10:22;;;;;;;2.22;0.55;;;21.30;96.00;;;;;;4954523;29;20950;-75
2023/06/27 20:12:51;;;;;;;4.05;0.75;;;21.40;94.70;;;;;;4953184;28;20339;-76
2023/06/27 20:15:18;;;;;;;1.75;0.57;;;21.30;94.00;;;;;;4950498;28;20312;-75
2023/06/27 20:17:44;;;;;;;1.70;0.50;;;21.30;94.30;;;;;;4946878;28;20567;-75